Time;durP1;ratioP1;P1;durP2;ratioP2;P2;SDS_P1;SDS_P2;PMS_P1;PMS_P2;Temp;Humidity;BMP_temperature;BMP_pressure;BME280_temperature;BME280_humidity;BME280_pressure;Samples;Min_cycle;Max_cycle;Signal;HPM_P1;HPM_P2
2023/07/18 00:02:28;;;;;;;3.35;1.60;;;18.90;1.00;;;;;;7389923;19;20018;-64
2023/07/18 00:04:58;;;;;;;3.95;1.58;;;19.00;1.00;;;;;;7388651;19;20006;-64
2023/07/18 00:07:29;;;;;;;3.97;1.88;;;18.90;1.00;;;;;;7390039;19;20206;-64
2023/07/18 00:09:59;;;;;;;4.07;1.40;;;19.00;1.00;;;;;;7388416;19;20450;-64
2023/07/18 00:12:29;;;;;;;5.80;1.58;;;19.00;1.00;;;;;;7389388;19;20466;-64
2023/07/18 00:14:59;;;;;;;4.05;1.70;;;19.00;1.00;;;;;;7388853;19;20014;-64
2023/07/18 00:17:31;;;;;;;4.13;1.40;;;19.00;1.00;;;;;;7389026;19;20494;-64
2023/07/18 00:20:01;;;;;;;3.28;1.58;;;18.90;1.00;;;;;;7388463;19;20585;-64
2023/07/18 00:22:31;;;;;;;4.45;1.67;;;18.90;1.00;;;;;;7389181;19;20015;-64
2023/07/18 00:25:01;;;;;;;6.32;1.73;;;18.80;1.00;;;;;;7388461;19;20015;-64
2023/07/18 00:27:31;;;;;;;5.10;1.95;;;18.80;1.00;;;;;;7389063;19;20678;-64
2023/07/18 00:30:01;;;;;;;6.28;2.03;;;18.80;1.00;;;;;;7385813;19;20427;-64
2023/07/18 00:32:34;;;;;;;4.07;2.00;;;18.80;1.00;;;;;;7388931;19;20027;-64
2023/07/18 00:35:04;;;;;;;3.65;1.52;;;18.70;1.00;;;;;;7388109;19;20090;-64
2023/07/18 00:37:35;;;;;;;6.18;1.70;;;18.70;1.00;;;;;;7389112;19;20011;-64
2023/07/18 00:40:10;;;;;;;2.78;1.40;;;18.60;1.00;;;;;;7387560;19;20018;-65
2023/07/18 00:42:41;;;;;;;2.35;1.30;;;18.60;1.00;;;;;;7388765;19;20014;-63
2023/07/18 00:45:12;;;;;;;4.35;1.88;;;18.70;1.00;;;;;;7388340;19;20022;-65
2023/07/18 00:47:46;;;;;;;1.88;1.13;;;18.70;1.00;;;;;;7388855;19;20022;-64
2023/07/18 00:50:18;;;;;;;3.47;1.42;;;18.60;1.00;;;;;;7387155;19;20019;-65
2023/07/18 00:52:50;;;;;;;2.88;1.30;;;18.40;1.00;;;;;;7388316;19;20010;-64
2023/07/18 00:55:21;;;;;;;4.25;1.70;;;18.20;1.00;;;;;;7387932;19;20019;-64
2023/07/18 00:57:52;;;;;;;5.22;1.88;;;17.90;1.00;;;;;;7388318;19;20014;-65
2023/07/18 01:00:22;;;;;;;4.88;2.05;;;17.80;1.00;;;;;;7387789;19;20015;-64
2023/07/18 01:02:55;;;;;;;5.78;1.77;;;18.00;1.00;;;;;;7395259;19;20478;-64
2023/07/18 01:05:26;;;;;;;4.43;1.77;;;18.10;1.00;;;;;;7393047;19;20015;-64
2023/07/18 01:07:56;;;;;;;4.45;1.80;;;18.00;1.00;;;;;;7393639;19;20014;-65
2023/07/18 01:10:27;;;;;;;2.97;1.70;;;18.00;1.00;;;;;;7393449;19;20018;-64
2023/07/18 01:12:59;;;;;;;4.90;1.67;;;18.20;1.00;;;;;;7395489;19;20015;-63
2023/07/18 01:15:31;;;;;;;2.53;1.67;;;18.10;1.00;;;;;;7394637;19;20020;-63
2023/07/18 01:18:08;;;;;;;4.65;1.88;;;18.10;1.00;;;;;;7394601;19;20382;-64
2023/07/18 01:20:40;;;;;;;5.05;1.73;;;18.10;1.00;;;;;;7393367;19;20014;-64
2023/07/18 01:23:13;;;;;;;3.00;1.30;;;18.20;1.00;;;;;;7394930;19;20078;-64
2023/07/18 01:25:44;;;;;;;4.65;1.70;;;18.20;1.00;;;;;;7393965;19;20015;-64
2023/07/18 01:28:14;;;;;;;3.08;1.60;;;18.10;1.00;;;;;;7394125;19;20031;-63
2023/07/18 01:30:44;;;;;;;3.80;1.58;;;18.00;1.00;;;;;;7391306;19;20035;-64
2023/07/18 01:33:14;;;;;;;2.63;1.23;;;17.90;1.00;;;;;;7394368;19;20042;-63
2023/07/18 01:35:45;;;;;;;3.30;1.27;;;17.90;1.00;;;;;;7393632;19;20024;-63
2023/07/18 01:38:18;;;;;;;3.88;1.90;;;17.80;1.00;;;;;;7394254;19;20014;-63
2023/07/18 01:40:48;;;;;;;5.55;1.98;;;17.90;1.00;;;;;;7392462;19;20396;-63
2023/07/18 01:43:18;;;;;;;8.13;2.00;;;17.90;1.00;;;;;;7394423;19;20010;-64
2023/07/18 01:45:48;;;;;;;5.38;1.70;;;17.80;1.00;;;;;;7395304;19;20010;-63
2023/07/18 01:48:19;;;;;;;2.85;1.60;;;17.60;1.00;;;;;;7391359;19;20036;-63
2023/07/18 01:50:49;;;;;;;4.13;1.58;;;17.30;1.00;;;;;;7392419;19;20027;-64
2023/07/18 01:53:21;;;;;;;3.97;1.85;;;17.10;1.00;;;;;;7393508;19;20022;-64
2023/07/18 01:55:51;;;;;;;6.18;2.00;;;17.00;1.00;;;;;;7392873;19;20037;-63
2023/07/18 01:58:21;;;;;;;5.35;1.67;;;16.90;1.00;;;;;;7393548;19;20014;-64
2023/07/18 02:00:51;;;;;;;4.45;1.98;;;16.80;1.00;;;;;;7392056;19;20035;-65
2023/07/18 02:03:21;;;;;;;4.05;2.15;;;16.70;1.00;;;;;;7391177;19;20534;-65
2023/07/18 02:05:51;;;;;;;3.58;1.70;;;16.70;1.00;;;;;;7393225;19;20014;-65
2023/07/18 02:08:24;;;;;;;3.58;1.88;;;16.70;1.00;;;;;;7391052;19;20048;-64
2023/07/18 02:10:54;;;;;;;4.28;2.33;;;16.80;1.00;;;;;;7391435;19;20018;-65
2023/07/18 02:13:24;;;;;;;5.95;2.10;;;16.70;1.00;;;;;;7390629;19;20035;-65
2023/07/18 02:15:54;;;;;;;4.68;2.28;;;16.60;1.00;;;;;;7392665;19;20010;-64
2023/07/18 02:18:23;;;;;;;4.00;2.15;;;16.70;1.00;;;;;;7392354;19;20022;-64
2023/07/18 02:20:53;;;;;;;4.57;2.10;;;16.80;1.00;;;;;;7391709;19;20082;-64
2023/07/18 02:23:26;;;;;;;5.80;2.22;;;16.90;1.00;;;;;;7392642;19;20022;-64
2023/07/18 02:25:56;;;;;;;6.53;2.25;;;17.10;1.00;;;;;;7391004;19;20037;-64
2023/07/18 02:28:26;;;;;;;6.70;2.17;;;17.30;1.00;;;;;;7390428;19;20042;-64
2023/07/18 02:30:56;;;;;;;6.63;2.30;;;17.30;1.00;;;;;;7390963;19;20043;-64
2023/07/18 02:33:26;;;;;;;3.10;2.08;;;17.10;1.00;;;;;;7391775;19;20018;-65
2023/07/18 02:35:55;;;;;;;3.85;1.83;;;17.00;1.00;;;;;;7392636;19;20014;-64
2023/07/18 02:38:28;;;;;;;5.70;2.20;;;17.00;1.00;;;;;;7391761;19;20014;-64
2023/07/18 02:40:58;;;;;;;7.22;2.10;;;16.80;1.00;;;;;;7390742;19;20020;-64
2023/07/18 02:43:28;;;;;;;5.40;2.20;;;16.80;1.00;;;;;;7391578;19;20018;-65
2023/07/18 02:45:58;;;;;;;5.38;2.10;;;16.80;1.00;;;;;;7393928;19;20022;-65
2023/07/18 02:48:28;;;;;;;4.35;2.08;;;16.70;1.00;;;;;;7389869;19;20021;-64
2023/07/18 02:50:58;;;;;;;2.95;2.05;;;16.60;1.00;;;;;;7390991;19;20014;-65
2023/07/18 02:53:30;;;;;;;6.30;2.58;;;16.60;1.00;;;;;;7391120;19;20019;-64
2023/07/18 02:56:00;;;;;;;5.63;2.35;;;16.70;1.00;;;;;;7391742;19;20066;-64
2023/07/18 02:58:30;;;;;;;5.95;2.70;;;16.70;1.00;;;;;;7391171;19;20409;-65
2023/07/18 03:01:00;;;;;;;3.90;2.03;;;16.70;1.00;;;;;;7390197;19;20011;-64
2023/07/18 03:03:32;;;;;;;4.57;2.00;;;16.60;1.00;;;;;;7391191;19;20011;-64
2023/07/18 03:06:03;;;;;;;5.47;2.50;;;16.20;1.00;;;;;;7391266;19;20015;-65
2023/07/18 03:08:36;;;;;;;4.75;2.17;;;16.20;1.00;;;;;;7389127;19;20018;-64
2023/07/18 03:11:06;;;;;;;4.05;2.30;;;16.10;1.00;;;;;;7390368;19;20085;-64
2023/07/18 03:13:36;;;;;;;3.60;1.90;;;16.00;1.00;;;;;;7390714;19;20014;-65
2023/07/18 03:16:07;;;;;;;3.88;2.30;;;15.90;1.00;;;;;;7390973;19;20021;-65
2023/07/18 03:18:39;;;;;;;4.40;2.20;;;15.90;1.00;;;;;;7390251;19;20046;-64
2023/07/18 03:21:09;;;;;;;6.47;2.33;;;15.80;1.00;;;;;;7387761;19;20014;-65
2023/07/18 03:23:41;;;;;;;8.55;2.30;;;15.70;1.00;;;;;;7390330;19;20359;-64
2023/07/18 03:26:11;;;;;;;5.38;2.38;;;15.70;1.00;;;;;;7390507;19;20015;-63
2023/07/18 03:28:42;;;;;;;3.58;2.50;;;15.60;1.00;;;;;;7388512;19;20048;-63
2023/07/18 03:31:12;;;;;;;3.38;2.10;;;15.50;1.00;;;;;;7388352;19;20014;-63
2023/07/18 03:33:42;;;;;;;4.82;2.60;;;15.80;1.00;;;;;;7389562;19;20014;-63
2023/07/18 03:36:12;;;;;;;4.15;2.20;;;15.90;1.00;;;;;;7390398;19;20424;-63
2023/07/18 03:38:44;;;;;;;4.55;2.45;;;15.70;1.00;;;;;;7390040;19;20704;-63
2023/07/18 03:41:14;;;;;;;4.78;2.85;;;15.70;1.00;;;;;;7386935;19;20025;-64
2023/07/18 03:43:44;;;;;;;5.45;2.33;;;15.70;1.00;;;;;;7388841;19;20570;-63
2023/07/18 03:46:14;;;;;;;4.35;2.38;;;15.70;1.00;;;;;;7391849;19;20499;-63
2023/07/18 03:48:44;;;;;;;8.23;3.47;;;15.80;1.00;;;;;;7386367;19;20026;-64
2023/07/18 03:51:14;;;;;;;5.95;2.30;;;15.60;1.00;;;;;;7388407;19;20018;-63
2023/07/18 03:53:47;;;;;;;3.47;2.40;;;15.70;1.00;;;;;;7389157;19;20032;-63
2023/07/18 03:56:17;;;;;;;4.38;2.28;;;15.80;1.00;;;;;;7389470;19;20011;-64
2023/07/18 03:58:47;;;;;;;3.83;2.45;;;16.20;1.00;;;;;;7387346;19;20547;-63
2023/07/18 04:01:17;;;;;;;4.70;2.35;;;16.70;1.00;;;;;;7386237;19;20412;-64
2023/07/18 04:03:48;;;;;;;6.03;2.38;;;16.90;1.00;;;;;;7388939;19;20014;-63
2023/07/18 04:06:18;;;;;;;2.72;1.90;;;17.10;1.00;;;;;;7388852;19;20018;-63
2023/07/18 04:08:51;;;;;;;3.30;2.30;;;16.50;1.00;;;;;;7387733;19;20396;-65
2023/07/18 04:11:22;;;;;;;5.05;2.40;;;16.50;1.00;;;;;;7387616;19;20018;-65
2023/07/18 04:13:51;;;;;;;7.82;2.70;;;17.00;1.00;;;;;;7388762;19;20018;-63
2023/07/18 04:16:21;;;;;;;6.78;2.65;;;17.40;1.00;;;;;;7389053;19;20010;-63
2023/07/18 04:18:54;;;;;;;4.47;2.40;;;17.90;1.00;;;;;;7388994;19;20007;-63
2023/07/18 04:21:24;;;;;;;5.68;3.10;;;18.30;1.00;;;;;;7386483;19;20011;-63
2023/07/18 04:23:57;;;;;;;6.40;3.10;;;18.70;1.00;;;;;;7388104;19;20506;-64
2023/07/18 04:26:27;;;;;;;6.28;2.60;;;19.00;1.00;;;;;;7389029;19;20525;-64
2023/07/18 04:28:57;;;;;;;5.53;2.80;;;19.20;1.00;;;;;;7386921;19;20022;-64
2023/07/18 04:31:27;;;;;;;7.18;2.80;;;19.50;1.00;;;;;;7387169;19;20037;-64
2023/07/18 04:33:57;;;;;;;5.50;2.63;;;19.20;1.00;;;;;;7387772;19;20517;-65
2023/07/18 04:36:27;;;;;;;4.25;2.53;;;20.10;1.00;;;;;;7393004;19;20011;-64
2023/07/18 04:38:59;;;;;;;7.32;2.90;;;20.00;1.00;;;;;;7395917;19;20018;-64
2023/07/18 04:41:29;;;;;;;4.80;2.75;;;20.40;1.00;;;;;;7393408;19;20015;-64
2023/07/18 04:44:18;;;;;;;3.90;2.35;;;21.10;1.00;;;;;;7395091;19;20542;-63
2023/07/18 04:46:48;;;;;;;5.35;2.40;;;22.00;1.00;;;;;;7399504;19;20010;-64
2023/07/18 04:49:18;;;;;;;5.78;2.90;;;21.90;1.00;;;;;;7393537;19;20015;-65
2023/07/18 04:51:51;;;;;;;7.25;2.53;;;21.30;1.00;;;;;;7395802;19;20010;-64
2023/07/18 04:54:24;;;;;;;5.10;2.40;;;21.60;1.00;;;;;;7394997;19;20014;-65
2023/07/18 04:56:54;;;;;;;4.22;2.53;;;21.70;1.00;;;;;;7395221;19;20015;-63
2023/07/18 04:59:24;;;;;;;5.55;2.20;;;23.60;1.00;;;;;;7394712;19;20534;-64
2023/07/18 05:01:55;;;;;;;6.88;2.67;;;22.40;1.00;;;;;;7395163;19;20344;-64
2023/07/18 05:04:25;;;;;;;4.50;2.70;;;22.30;1.00;;;;;;7393221;19;20019;-65
2023/07/18 05:06:55;;;;;;;5.35;2.53;;;22.70;1.00;;;;;;7395563;19;20086;-63
2023/07/18 05:09:29;;;;;;;5.43;2.47;;;24.50;1.00;;;;;;7392064;19;20027;-63
2023/07/18 05:11:59;;;;;;;7.60;2.53;;;24.90;1.00;;;;;;7394074;19;20014;-64
2023/07/18 05:14:29;;;;;;;4.25;2.60;;;24.90;1.00;;;;;;7391864;19;20554;-64
2023/07/18 05:16:58;;;;;;;5.50;2.40;;;24.50;1.00;;;;;;7394776;19;20027;-64
2023/07/18 05:19:28;;;;;;;4.63;2.40;;;24.40;1.00;;;;;;7393328;19;20116;-64
2023/07/18 05:21:58;;;;;;;5.18;2.53;;;24.10;1.00;;;;;;7394946;19;20030;-64
2023/07/18 05:24:31;;;;;;;5.13;2.85;;;23.40;1.00;;;;;;7394227;19;20015;-65
2023/07/18 05:27:01;;;;;;;5.82;2.42;;;24.20;1.00;;;;;;7394169;19;20011;-66
2023/07/18 05:29:31;;;;;;;4.03;2.38;;;24.60;1.00;;;;;;7392155;19;20030;-63
2023/07/18 05:32:01;;;;;;;5.63;2.65;;;23.70;1.00;;;;;;7393601;19;20010;-63
2023/07/18 05:34:31;;;;;;;7.55;2.60;;;24.00;1.00;;;;;;7392693;19;20018;-63
2023/07/18 05:37:01;;;;;;;5.35;2.42;;;24.00;1.00;;;;;;7393113;19;20028;-64
2023/07/18 05:39:34;;;;;;;6.18;2.83;;;24.00;1.00;;;;;;7393095;19;20027;-63
2023/07/18 05:42:04;;;;;;;4.22;2.15;;;24.60;1.00;;;;;;7393025;19;20014;-64
2023/07/18 05:44:34;;;;;;;3.28;2.30;;;25.10;1.00;;;;;;7392457;19;20015;-63
2023/07/18 05:47:04;;;;;;;14.32;3.17;;;25.70;1.00;;;;;;7393208;19;20086;-63
2023/07/18 05:49:34;;;;;;;7.50;3.08;;;25.30;1.00;;;;;;7391767;19;20086;-64
2023/07/18 05:52:03;;;;;;;3.22;2.45;;;24.40;1.00;;;;;;7393113;19;20450;-65
2023/07/18 05:54:36;;;;;;;6.68;2.83;;;24.00;1.00;;;;;;7392139;19;20406;-64
2023/07/18 05:57:09;;;;;;;5.47;2.15;;;24.40;1.00;;;;;;7392395;19;20572;-64
2023/07/18 05:59:38;;;;;;;5.70;2.28;;;23.40;1.00;;;;;;7389489;19;20082;-64
2023/07/18 06:02:08;;;;;;;6.18;2.03;;;23.50;1.00;;;;;;7392691;19;20018;-64
2023/07/18 06:04:40;;;;;;;5.68;2.53;;;23.60;1.00;;;;;;7391623;19;20485;-64
2023/07/18 06:07:11;;;;;;;4.32;2.28;;;23.30;1.00;;;;;;7392189;19;20011;-64
2023/07/18 06:09:44;;;;;;;7.38;2.63;;;21.10;1.00;;;;;;7390661;19;20572;-64
2023/07/18 06:12:16;;;;;;;6.75;3.00;;;20.70;1.00;;;;;;7390399;19;20041;-64
2023/07/18 06:14:46;;;;;;;3.70;2.15;;;22.40;1.00;;;;;;7391754;19;20014;-64
2023/07/18 06:17:16;;;;;;;5.82;1.92;;;23.50;1.00;;;;;;7392007;19;20006;-64
2023/07/18 06:19:47;;;;;;;4.72;2.08;;;23.70;1.00;;;;;;7390342;19;20104;-64
2023/07/18 06:22:18;;;;;;;8.18;2.28;;;23.00;1.00;;;;;;7391847;19;20721;-64
2023/07/18 06:24:51;;;;;;;5.15;2.35;;;23.00;1.00;;;;;;7390980;19;20359;-65
2023/07/18 06:27:21;;;;;;;6.75;2.67;;;23.40;1.00;;;;;;7391996;19;20018;-64
2023/07/18 06:29:51;;;;;;;9.43;2.75;;;23.30;1.00;;;;;;7389812;19;20716;-64
2023/07/18 06:32:21;;;;;;;4.53;2.45;;;23.50;1.00;;;;;;7391024;19;20047;-64
2023/07/18 06:34:51;;;;;;;4.22;2.58;;;24.00;1.00;;;;;;7390840;19;20031;-65
2023/07/18 06:37:20;;;;;;;3.80;2.20;;;23.10;1.00;;;;;;7391255;19;20024;-65
2023/07/18 06:39:53;;;;;;;4.18;2.42;;;23.50;1.00;;;;;;7390213;19;20039;-64
2023/07/18 06:42:24;;;;;;;5.22;2.20;;;23.40;1.00;;;;;;7388474;19;20010;-63
2023/07/18 06:44:54;;;;;;;10.35;2.45;;;22.90;1.00;;;;;;7389928;19;20062;-64
2023/07/18 06:47:24;;;;;;;4.13;2.25;;;23.70;1.00;;;;;;7390541;19;20379;-64
2023/07/18 06:49:54;;;;;;;5.97;2.60;;;23.70;1.00;;;;;;7388839;19;20018;-63
2023/07/18 06:52:24;;;;;;;4.93;2.05;;;23.10;1.00;;;;;;7389991;19;20042;-64
2023/07/18 06:54:57;;;;;;;4.13;2.17;;;22.00;1.00;;;;;;7388949;19;20032;-64
2023/07/18 06:57:27;;;;;;;5.45;2.20;;;21.30;1.00;;;;;;7389467;19;20014;-64
2023/07/18 06:59:57;;;;;;;7.90;2.10;;;21.60;1.00;;;;;;7388036;19;20027;-64
2023/07/18 07:02:27;;;;;;;5.30;2.17;;;21.50;1.00;;;;;;7389986;19;20018;-64
2023/07/18 07:04:57;;;;;;;3.60;1.98;;;22.00;1.00;;;;;;7390592;19;20018;-64
2023/07/18 07:07:27;;;;;;;4.68;2.13;;;22.00;1.00;;;;;;7390400;19;20035;-65
2023/07/18 07:09:59;;;;;;;3.30;1.98;;;21.90;1.00;;;;;;7388358;19;20043;-64
2023/07/18 07:12:29;;;;;;;4.63;2.10;;;22.50;1.00;;;;;;7390240;19;20514;-63
2023/07/18 07:15:06;;;;;;;5.65;2.00;;;21.90;1.00;;;;;;7387429;19;20022;-63
2023/07/18 07:17:36;;;;;;;7.03;2.58;;;21.50;1.00;;;;;;7389569;19;20011;-64
2023/07/18 07:20:12;;;;;;;4.93;2.53;;;21.90;1.00;;;;;;7388990;19;20015;-64
2023/07/18 07:22:46;;;;;;;6.30;2.47;;;22.10;1.00;;;;;;7389921;19;20026;-64
2023/07/18 07:25:18;;;;;;;3.45;1.85;;;22.50;1.00;;;;;;7389045;19;20549;-64
2023/07/18 07:27:49;;;;;;;9.98;2.10;;;22.60;1.00;;;;;;7389003;19;20038;-63
2023/07/18 07:30:20;;;;;;;3.30;1.98;;;22.40;1.00;;;;;;7388098;19;20018;-64
2023/07/18 07:32:52;;;;;;;5.88;2.15;;;22.60;1.00;;;;;;7389537;19;20010;-64
2023/07/18 07:35:23;;;;;;;3.42;1.90;;;22.60;1.00;;;;;;7387300;19;20398;-64
2023/07/18 07:37:54;;;;;;;3.40;2.00;;;22.70;1.00;;;;;;7389349;19;20019;-64
2023/07/18 07:40:27;;;;;;;4.55;1.95;;;23.10;1.00;;;;;;7387819;19;20018;-64
2023/07/18 07:42:57;;;;;;;5.97;2.00;;;23.10;1.00;;;;;;7387041;19;20010;-64
2023/07/18 07:45:26;;;;;;;6.07;2.20;;;23.30;1.00;;;;;;7389117;19;20094;-65
2023/07/18 07:47:56;;;;;;;4.78;2.10;;;23.10;1.00;;;;;;7388730;19;20498;-63
2023/07/18 07:50:26;;;;;;;5.32;2.30;;;24.10;1.00;;;;;;7387220;19;20509;-63
2023/07/18 07:52:56;;;;;;;5.95;2.08;;;24.00;1.00;;;;;;7386645;19;20019;-63
2023/07/18 07:55:30;;;;;;;12.35;2.40;;;24.00;1.00;;;;;;7388034;19;20545;-64
2023/07/18 07:58:00;;;;;;;3.13;1.70;;;23.10;1.00;;;;;;7388509;19;20010;-64
2023/07/18 08:00:30;;;;;;;5.78;2.30;;;22.80;1.00;;;;;;7387326;19;20037;-63
2023/07/18 08:03:00;;;;;;;3.45;1.70;;;23.10;1.00;;;;;;7388361;19;20020;-64
2023/07/18 08:05:30;;;;;;;3.35;1.80;;;23.00;1.00;;;;;;7387966;19;20010;-64
2023/07/18 08:08:00;;;;;;;3.47;1.67;;;23.40;1.00;;;;;;7387067;19;20021;-64
2023/07/18 08:10:32;;;;;;;3.53;2.08;;;23.40;1.00;;;;;;7382096;19;20506;-64
2023/07/18 08:13:02;;;;;;;4.05;1.92;;;23.40;1.00;;;;;;7388791;19;20018;-64
2023/07/18 08:15:32;;;;;;;4.60;1.83;;;23.10;1.00;;;;;;7387842;19;20022;-64
2023/07/18 08:18:02;;;;;;;4.05;1.70;;;23.10;1.00;;;;;;7388412;19;20038;-64
2023/07/18 08:20:32;;;;;;;4.90;1.90;;;23.40;1.00;;;;;;7386906;19;20086;-64
2023/07/18 08:23:03;;;;;;;2.75;1.90;;;23.60;1.00;;;;;;7388289;19;20042;-65
2023/07/18 08:25:36;;;;;;;3.78;1.77;;;24.40;1.00;;;;;;7387445;19;20022;-64
2023/07/18 08:28:06;;;;;;;4.10;1.77;;;23.90;1.00;;;;;;7388203;19;20486;-65
2023/07/18 08:30:36;;;;;;;3.70;2.08;;;23.90;1.00;;;;;;7386696;19;20082;-64
2023/07/18 08:33:06;;;;;;;3.50;1.80;;;24.10;1.00;;;;;;7387554;19;20014;-64
2023/07/18 08:35:36;;;;;;;3.88;1.60;;;24.20;1.00;;;;;;7387315;19;20020;-64
2023/07/18 08:38:08;;;;;;;4.75;1.75;;;24.00;1.00;;;;;;7387623;19;20013;-64
2023/07/18 08:40:44;;;;;;;3.50;1.60;;;24.40;1.00;;;;;;7386540;19;20018;-64
2023/07/18 08:43:16;;;;;;;2.53;1.52;;;24.30;1.00;;;;;;7387938;19;20018;-64
2023/07/18 08:45:47;;;;;;;7.32;1.58;;;24.30;1.00;;;;;;7388818;19;20071;-64
2023/07/18 08:48:18;;;;;;;4.70;1.60;;;25.00;1.00;;;;;;7387103;19;20070;-64
2023/07/18 08:50:48;;;;;;;3.45;1.85;;;24.50;1.00;;;;;;7385977;19;20130;-65
2023/07/18 08:53:18;;;;;;;3.10;1.98;;;24.20;1.00;;;;;;7387251;19;20022;-65
2023/07/18 08:55:51;;;;;;;4.20;1.80;;;23.70;1.00;;;;;;7387312;19;20015;-64
2023/07/18 08:58:23;;;;;;;5.13;2.10;;;23.80;1.00;;;;;;7386952;19;20039;-64
2023/07/18 09:00:53;;;;;;;5.28;1.65;;;24.50;1.00;;;;;;7385629;19;20011;-64
2023/07/18 09:03:23;;;;;;;4.50;1.83;;;24.40;1.00;;;;;;7386787;19;20011;-64
2023/07/18 09:05:54;;;;;;;3.22;1.83;;;24.80;1.00;;;;;;7386849;19;20470;-64
2023/07/18 09:08:25;;;;;;;7.25;2.10;;;24.60;1.00;;;;;;7386394;19;20006;-64
2023/07/18 09:11:06;;;;;;;3.63;1.27;;;24.90;1.00;;;;;;7384893;19;20048;-65
2023/07/18 09:13:41;;;;;;;2.58;1.30;;;24.80;1.00;;;;;;7385590;19;20557;-64
2023/07/18 09:16:15;;;;;;;4.28;1.60;;;24.80;1.00;;;;;;7385948;19;20018;-64
2023/07/18 09:18:45;;;;;;;;;;;25.20;1.00;;;;;;7387740;19;20015;-64
2023/07/18 09:21:19;;;;;;;2.08;1.40;;;24.60;1.00;;;;;;7385271;19;19930;-64
2023/07/18 09:23:50;;;;;;;2.83;1.40;;;24.40;1.00;;;;;;7393577;19;20034;-64
2023/07/18 09:26:24;;;;;;;4.28;1.40;;;25.50;1.00;;;;;;7394317;19;20088;-63
2023/07/18 09:28:54;;;;;;;4.20;2.05;;;25.90;1.00;;;;;;7393632;19;20061;-63
2023/07/18 09:31:25;;;;;;;4.03;1.75;;;25.80;1.00;;;;;;7390996;19;20078;-64
2023/07/18 09:33:56;;;;;;;2.33;1.60;;;26.30;1.00;;;;;;7393372;19;20023;-65
2023/07/18 09:36:27;;;;;;;6.65;1.73;;;26.30;1.00;;;;;;7393336;19;20021;-65
2023/07/18 09:38:57;;;;;;;4.75;1.80;;;25.90;1.00;;;;;;7393096;19;20042;-64
2023/07/18 09:41:30;;;;;;;3.20;1.70;;;25.50;1.00;;;;;;7391051;19;20086;-64
2023/07/18 09:44:03;;;;;;;3.80;1.80;;;25.00;1.00;;;;;;7392908;19;20014;-64
2023/07/18 09:46:53;;;;;;;3.13;1.58;;;25.80;1.00;;;;;;7396676;19;20456;-64
2023/07/18 09:49:24;;;;;;;3.78;1.85;;;26.60;1.00;;;;;;7390893;19;20018;-65
2023/07/18 09:52:05;;;;;;;3.13;1.83;;;26.80;1.00;;;;;;7391868;19;20015;-64
2023/07/18 09:54:36;;;;;;;4.47;1.63;;;27.30;1.00;;;;;;7391968;19;20010;-65
2023/07/18 09:57:10;;;;;;;5.70;1.88;;;27.60;1.00;;;;;;7392566;19;20014;-65
2023/07/18 09:59:41;;;;;;;;;;;26.90;1.00;;;;;;7389867;19;20408;-64
2023/07/18 10:02:12;;;;;;;6.97;2.20;;;26.70;1.00;;;;;;7392614;19;19915;-63
2023/07/18 10:04:42;;;;;;;5.63;2.13;;;26.30;1.00;;;;;;7392274;19;20041;-64
2023/07/18 10:07:12;;;;;;;4.10;1.92;;;25.80;1.00;;;;;;7392152;19;20014;-63
2023/07/18 10:09:42;;;;;;;2.97;1.77;;;26.30;1.00;;;;;;7391818;19;20031;-65
2023/07/18 10:12:15;;;;;;;4.90;2.40;;;26.60;1.00;;;;;;7389881;19;20074;-64
2023/07/18 10:14:56;;;;;;;4.25;1.75;;;26.70;1.00;;;;;;7391697;19;20034;-64
2023/07/18 10:17:41;;;;;;;3.88;2.50;;;26.80;1.00;;;;;;7390241;19;20021;-64
2023/07/18 10:20:15;;;;;;;6.35;2.42;;;26.80;1.00;;;;;;7389964;19;20017;-64
2023/07/18 10:22:53;;;;;;;4.95;2.15;;;26.80;1.00;;;;;;7392016;19;20014;-65
2023/07/18 10:25:23;;;;;;;5.60;2.50;;;27.00;1.00;;;;;;7391341;19;20430;-64
2023/07/18 10:27:55;;;;;;;4.80;2.47;;;26.10;1.00;;;;;;7391522;19;20024;-64
2023/07/18 10:30:26;;;;;;;4.68;2.10;;;26.10;1.00;;;;;;7390740;19;20018;-65
2023/07/18 10:32:57;;;;;;;4.25;2.00;;;25.80;1.00;;;;;;7388648;19;20015;-65
2023/07/18 10:35:29;;;;;;;4.85;2.17;;;25.80;1.00;;;;;;7389223;19;20025;-63
2023/07/18 10:38:02;;;;;;;13.55;2.42;;;25.70;1.00;;;;;;7389204;19;20022;-65
2023/07/18 10:40:35;;;;;;;5.68;2.10;;;25.70;1.00;;;;;;7389247;19;20015;-64
2023/07/18 10:43:10;;;;;;;6.00;2.55;;;25.50;1.00;;;;;;7389874;19;20380;-64
2023/07/18 10:45:40;;;;;;;;;;;25.60;1.00;;;;;;7393244;19;20015;-64
2023/07/18 10:48:15;;;;;;;4.15;2.13;;;25.50;1.00;;;;;;7390603;19;19922;-64
2023/07/18 10:50:47;;;;;;;5.03;2.40;;;25.60;1.00;;;;;;7389353;19;20025;-65
2023/07/18 10:53:18;;;;;;;3.42;2.05;;;26.00;1.00;;;;;;7389135;19;20023;-64
2023/07/18 10:55:49;;;;;;;3.40;2.33;;;26.50;1.00;;;;;;7390913;19;20022;-64
2023/07/18 10:58:23;;;;;;;9.35;2.42;;;26.60;1.00;;;;;;7389100;19;20007;-65
2023/07/18 11:00:53;;;;;;;;;;;26.40;1.00;;;;;;7390162;19;20038;-63
2023/07/18 11:03:23;;;;;;;5.72;2.30;;;26.90;1.00;;;;;;7389810;19;19933;-64
2023/07/18 11:05:55;;;;;;;5.60;2.35;;;27.10;1.00;;;;;;7390694;19;20015;-63
2023/07/18 11:08:26;;;;;;;3.17;2.25;;;27.20;1.00;;;;;;7389926;19;20126;-65
2023/07/18 11:10:57;;;;;;;6.07;2.60;;;27.50;1.00;;;;;;7388930;19;20018;-65
2023/07/18 11:13:34;;;;;;;4.78;2.58;;;26.70;1.00;;;;;;7388200;19;20053;-65
2023/07/18 11:16:07;;;;;;;6.38;2.80;;;26.70;1.00;;;;;;7390020;19;20035;-65
2023/07/18 11:18:38;;;;;;;4.20;2.60;;;26.80;1.00;;;;;;7389768;19;20082;-65
2023/07/18 11:21:09;;;;;;;5.15;2.17;;;26.50;1.00;;;;;;7388127;19;20263;-65
2023/07/18 11:23:41;;;;;;;4.38;2.30;;;26.30;1.00;;;;;;7388932;19;20032;-65
2023/07/18 11:26:12;;;;;;;3.90;2.17;;;26.30;1.00;;;;;;7389229;19;20034;-65
2023/07/18 11:28:47;;;;;;;3.97;2.17;;;26.50;1.00;;;;;;7389721;19;20018;-65
2023/07/18 11:31:24;;;;;;;8.65;2.60;;;26.60;1.00;;;;;;7388611;19;20014;-66
2023/07/18 11:33:59;;;;;;;3.60;2.17;;;26.70;1.00;;;;;;7387669;19;20034;-65
2023/07/18 11:36:33;;;;;;;7.93;2.53;;;26.80;1.00;;;;;;7389972;19;20014;-64
2023/07/18 11:39:04;;;;;;;;;;;26.60;1.00;;;;;;7390437;19;20014;-64
2023/07/18 11:41:35;;;;;;;4.80;2.85;;;26.30;1.00;;;;;;7388025;19;19926;-65
2023/07/18 11:44:09;;;;;;;3.97;2.17;;;26.30;1.00;;;;;;7388876;19;20054;-64
2023/07/18 11:46:40;;;;;;;4.35;2.20;;;26.50;1.00;;;;;;7392711;19;20033;-64
2023/07/18 11:49:12;;;;;;;4.30;2.70;;;26.50;1.00;;;;;;7389020;19;20041;-64
2023/07/18 11:51:43;;;;;;;4.00;2.40;;;26.50;1.00;;;;;;7387573;19;20010;-65
2023/07/18 11:54:13;;;;;;;5.60;2.40;;;26.60;1.00;;;;;;7384661;19;20037;-65
2023/07/18 11:56:42;;;;;;;4.47;2.15;;;26.60;1.00;;;;;;7387061;19;20403;-64
2023/07/18 11:59:15;;;;;;;4.97;2.20;;;26.80;1.00;;;;;;7389090;19;20343;-65
2023/07/18 12:01:45;;;;;;;4.28;2.15;;;26.70;1.00;;;;;;7388043;19;20037;-65
2023/07/18 12:04:16;;;;;;;5.07;2.55;;;27.00;1.00;;;;;;7388380;19;20031;-64
2023/07/18 12:06:46;;;;;;;5.03;2.75;;;27.30;1.00;;;;;;7388944;19;20024;-65
2023/07/18 12:09:18;;;;;;;4.93;2.40;;;27.50;1.00;;;;;;7388698;19;20015;-64
2023/07/18 12:11:48;;;;;;;4.05;2.30;;;27.20;1.00;;;;;;7388408;19;20019;-64
2023/07/18 12:14:20;;;;;;;3.67;2.35;;;26.70;1.00;;;;;;7386255;19;20026;-64
2023/07/18 12:17:00;;;;;;;4.13;2.70;;;26.70;1.00;;;;;;7388433;19;20375;-65
2023/07/18 12:19:30;;;;;;;3.97;2.45;;;26.80;1.00;;;;;;7387242;19;20014;-64
2023/07/18 12:21:59;;;;;;;5.55;2.75;;;26.90;1.00;;;;;;7387890;19;20019;-64
2023/07/18 12:24:30;;;;;;;9.85;2.65;;;26.80;1.00;;;;;;7387725;19;20038;-65
2023/07/18 12:27:00;;;;;;;5.10;2.58;;;26.90;1.00;;;;;;7388392;19;20017;-65
2023/07/18 12:29:32;;;;;;;4.20;2.47;;;26.80;1.00;;;;;;7387854;19;20074;-65
2023/07/18 12:32:02;;;;;;;5.95;2.50;;;27.20;1.00;;;;;;7387130;19;20022;-64
2023/07/18 12:34:32;;;;;;;5.80;3.05;;;27.30;1.00;;;;;;7385582;19;20031;-65
2023/07/18 12:37:02;;;;;;;5.30;2.50;;;27.00;1.00;;;;;;7387451;19;20014;-65
2023/07/18 12:39:32;;;;;;;4.50;2.55;;;27.30;1.00;;;;;;7387329;19;20031;-65
2023/07/18 12:42:03;;;;;;;4.78;2.83;;;27.00;1.00;;;;;;7387507;19;20010;-64
2023/07/18 12:44:44;;;;;;;5.60;2.20;;;27.40;1.00;;;;;;7386739;19;20038;-63
2023/07/18 12:47:14;;;;;;;6.88;2.78;;;27.50;1.00;;;;;;7391660;19;20022;-64
2023/07/18 12:49:44;;;;;;;4.93;3.28;;;27.20;1.00;;;;;;7386911;19;20123;-64
2023/07/18 12:52:17;;;;;;;5.47;2.37;;;27.90;1.00;;;;;;7387324;19;20515;-64
2023/07/18 12:54:47;;;;;;;5.68;2.55;;;28.20;1.00;;;;;;7384578;19;20483;-65
2023/07/18 12:57:17;;;;;;;4.72;2.65;;;28.10;1.00;;;;;;7391022;19;20035;-64
2023/07/18 12:59:49;;;;;;;5.45;2.72;;;28.30;1.00;;;;;;7392865;19;20019;-65
2023/07/18 13:02:23;;;;;;;4.63;2.55;;;28.10;1.00;;;;;;7392353;19;20021;-64
2023/07/18 13:04:53;;;;;;;4.65;2.97;;;28.60;1.00;;;;;;7394083;19;20014;-64
2023/07/18 13:07:22;;;;;;;5.82;2.72;;;28.30;1.00;;;;;;7393969;19;20114;-65
2023/07/18 13:09:53;;;;;;;6.40;2.75;;;28.70;1.00;;;;;;7393585;19;20021;-65
2023/07/18 13:12:22;;;;;;;3.92;3.00;;;28.20;1.00;;;;;;7394406;19;20015;-64
2023/07/18 13:14:55;;;;;;;7.63;3.13;;;28.40;1.00;;;;;;7391564;19;20010;-64
2023/07/18 13:17:25;;;;;;;3.53;2.45;;;28.30;1.00;;;;;;7394382;19;20038;-64
2023/07/18 13:19:55;;;;;;;6.60;2.72;;;27.90;1.00;;;;;;7393270;19;20108;-65